sensor_id;sensor_type;location;lat;lon;timestamp;pressure;altitude;pressure_sealevel;temperature;humidity
6833;BME280;3454;42.654;23.378;2023-05-13T00:01:38;63931.84;;;9.46;82.23
6833;BME280;3454;42.654;23.378;2023-05-13T00:04:05;63940.41;;;9.51;80.42
6833;BME280;3454;42.654;23.378;2023-05-13T00:06:31;63936.78;;;9.50;81.11
6833;BME280;3454;42.654;23.378;2023-05-13T00:09:00;63923.31;;;9.40;80.71
6833;BME280;3454;42.654;23.378;2023-05-13T00:11:25;63911.09;;;9.26;79.57
6833;BME280;3454;42.654;23.378;2023-05-13T00:13:51;63923.97;;;9.36;77.49
6833;BME280;3454;42.654;23.378;2023-05-13T00:16:16;63924.75;;;9.39;76.98
6833;BME280;3454;42.654;23.378;2023-05-13T00:18:42;63925.28;;;9.40;77.13
6833;BME280;3454;42.654;23.378;2023-05-13T00:21:08;63928.34;;;9.40;77.25
6833;BME280;3454;42.654;23.378;2023-05-13T00:23:33;63918.72;;;9.33;77.91
6833;BME280;3454;42.654;23.378;2023-05-13T00:25:59;63925.28;;;9.40;78.94
6833;BME280;3454;42.654;23.378;2023-05-13T00:28:32;63926.16;;;9.38;75.79
6833;BME280;3454;42.654;23.378;2023-05-13T00:30:57;63916.22;;;9.33;77.14
6833;BME280;3454;42.654;23.378;2023-05-13T00:33:22;63923.66;;;9.38;78.14
6833;BME280;3454;42.654;23.378;2023-05-13T00:35:48;63931.31;;;9.45;77.04
6833;BME280;3454;42.654;23.378;2023-05-13T00:38:13;63938.97;;;9.52;75.84
6833;BME280;3454;42.654;23.378;2023-05-13T00:40:38;63935.38;;;9.51;78.26
6833;BME280;3454;42.654;23.378;2023-05-13T00:43:05;63954.28;;;9.66;75.65
6833;BME280;3454;42.654;23.378;2023-05-13T00:45:31;63960.59;;;9.70;77.58
6833;BME280;3454;42.654;23.378;2023-05-13T00:47:57;63941.94;;;9.57;80.56
6833;BME280;3454;42.654;23.378;2023-05-13T00:50:23;63939.75;;;9.55;81.72
6833;BME280;3454;42.654;23.378;2023-05-13T00:52:50;63951.75;;;9.66;76.55
6833;BME280;3454;42.654;23.378;2023-05-13T00:55:15;63952.09;;;9.64;78.54
6833;BME280;3454;42.654;23.378;2023-05-13T00:57:41;63951.19;;;9.66;78.33
6833;BME280;3454;42.654;23.378;2023-05-13T01:00:07;63968.50;;;9.79;75.12
6833;BME280;3454;42.654;23.378;2023-05-13T01:02:58;63963.00;;;9.74;73.03
6833;BME280;3454;42.654;23.378;2023-05-13T01:05:54;63955.91;;;9.68;72.62
6833;BME280;3454;42.654;23.378;2023-05-13T01:11:00;63957.34;;;9.67;73.35
6833;BME280;3454;42.654;23.378;2023-05-13T01:13:33;63940.28;;;9.56;71.12
6833;BME280;3454;42.654;23.378;2023-05-13T01:16:15;63940.81;;;9.56;73.24
6833;BME280;3454;42.654;23.378;2023-05-13T01:18:45;63940.06;;;9.53;72.67
6833;BME280;3454;42.654;23.378;2023-05-13T01:21:13;63937.00;;;9.53;72.27
6833;BME280;3454;42.654;23.378;2023-05-13T01:23:38;63930.44;;;9.47;73.35
6833;BME280;3454;42.654;23.378;2023-05-13T01:26:03;63933.72;;;9.50;71.42
6833;BME280;3454;42.654;23.378;2023-05-13T01:28:29;63931.84;;;9.46;70.94
6833;BME280;3454;42.654;23.378;2023-05-13T01:30:55;63921.47;;;9.36;70.95
6833;BME280;3454;42.654;23.378;2023-05-13T01:33:22;63927.28;;;9.39;72.37
6833;BME280;3454;42.654;23.378;2023-05-13T01:35:48;63925.28;;;9.40;69.97
6833;BME280;3454;42.654;23.378;2023-05-13T01:38:14;63931.66;;;9.43;70.42
6833;BME280;3454;42.654;23.378;2023-05-13T01:40:40;63932.41;;;9.46;69.49
6833;BME280;3454;42.654;23.378;2023-05-13T01:43:06;63926.94;;;9.41;68.07
6833;BME280;3454;42.654;23.378;2023-05-13T01:45:32;63932.72;;;9.44;69.16
6833;BME280;3454;42.654;23.378;2023-05-13T01:47:58;63923.31;;;9.40;68.95
6833;BME280;3454;42.654;23.378;2023-05-13T01:50:24;63922.34;;;9.35;69.44
6833;BME280;3454;42.654;23.378;2023-05-13T01:52:50;63920.38;;;9.35;69.48
6833;BME280;3454;42.654;23.378;2023-05-13T01:55:16;63923.97;;;9.36;70.16
6833;BME280;3454;42.654;23.378;2023-05-13T01:57:41;63928.03;;;9.42;70.45
6833;BME280;3454;42.654;23.378;2023-05-13T02:00:07;63941.47;;;9.52;71.06
6833;BME280;3454;42.654;23.378;2023-05-13T02:02:32;63942.59;;;9.53;70.84
6833;BME280;3454;42.654;23.378;2023-05-13T02:04:58;63942.25;;;9.55;71.07
6833;BME280;3454;42.654;23.378;2023-05-13T02:07:23;63944.09;;;9.59;71.41
6833;BME280;3454;42.654;23.378;2023-05-13T02:09:49;63931.09;;;9.43;73.52
6833;BME280;3454;42.654;23.378;2023-05-13T02:12:15;63938.75;;;9.50;72.28
6833;BME280;3454;42.654;23.378;2023-05-13T02:14:40;63939.28;;;9.50;74.47
6833;BME280;3454;42.654;23.378;2023-05-13T02:17:05;63940.41;;;9.51;72.31
6833;BME280;3454;42.654;23.378;2023-05-13T02:19:31;63913.06;;;9.26;72.82
6833;BME280;3454;42.654;23.378;2023-05-13T02:21:56;63906.16;;;9.22;71.40
6833;BME280;3454;42.654;23.378;2023-05-13T02:24:22;63900.72;;;9.17;72.50
6833;BME280;3454;42.654;23.378;2023-05-13T02:26:47;63903.22;;;9.17;71.58
6833;BME280;3454;42.654;23.378;2023-05-13T02:29:13;63898.84;;;9.13;72.38
6833;BME280;3454;42.654;23.378;2023-05-13T02:31:38;63901.78;;;9.18;72.15
6833;BME280;3454;42.654;23.378;2023-05-13T02:34:05;63899.94;;;9.14;72.17
6833;BME280;3454;42.654;23.378;2023-05-13T02:36:30;63897.41;;;9.14;72.21
6833;BME280;3454;42.654;23.378;2023-05-13T02:38:56;63894.16;;;9.11;72.87
6833;BME280;3454;42.654;23.378;2023-05-13T02:41:21;63897.75;;;9.12;72.81
6833;BME280;3454;42.654;23.378;2023-05-13T02:43:47;63908.13;;;9.21;73.86
6833;BME280;3454;42.654;23.378;2023-05-13T02:46:12;63913.06;;;9.26;73.25
6833;BME280;3454;42.654;23.378;2023-05-13T02:48:38;63910.00;;;9.25;74.01
6833;BME280;3454;42.654;23.378;2023-05-13T02:51:03;63919.63;;;9.32;73.38
6833;BME280;3454;42.654;23.378;2023-05-13T02:53:28;63913.28;;;9.28;73.18
6833;BME280;3454;42.654;23.378;2023-05-13T02:55:54;63918.72;;;9.33;72.02
6833;BME280;3454;42.654;23.378;2023-05-13T02:58:20;63897.97;;;9.14;72.62
6833;BME280;3454;42.654;23.378;2023-05-13T03:00:45;63901.56;;;9.15;72.36
6833;BME280;3454;42.654;23.378;2023-05-13T03:03:10;63897.97;;;9.14;73.89
6833;BME280;3454;42.654;23.378;2023-05-13T03:05:36;63896.66;;;9.11;74.42
6833;BME280;3454;42.654;23.378;2023-05-13T03:08:01;63895.00;;;9.09;74.51
6833;BME280;3454;42.654;23.378;2023-05-13T03:10:27;63870.09;;;8.89;75.39
6833;BME280;3454;42.654;23.378;2023-05-13T03:12:53;63886.50;;;9.04;76.70
6833;BME280;3454;42.654;23.378;2023-05-13T03:15:18;63885.94;;;9.03;77.15
6833;BME280;3454;42.654;23.378;2023-05-13T03:17:43;63890.13;;;9.05;78.03
6833;BME280;3454;42.654;23.378;2023-05-13T03:20:10;63888.91;;;9.08;79.61
6833;BME280;3454;42.654;23.378;2023-05-13T03:22:36;63892.28;;;9.07;79.75
6833;BME280;3454;42.654;23.378;2023-05-13T03:25:05;63881.34;;;8.97;79.90
6833;BME280;3454;42.654;23.378;2023-05-13T03:27:31;63893.59;;;9.10;82.24
6833;BME280;3454;42.654;23.378;2023-05-13T03:29:56;63920.16;;;9.32;80.55
6833;BME280;3454;42.654;23.378;2023-05-13T03:32:21;63918.19;;;9.33;80.77
6833;BME280;3454;42.654;23.378;2023-05-13T03:34:49;63925.84;;;9.40;80.61
6833;BME280;3454;42.654;23.378;2023-05-13T03:37:15;63934.03;;;9.48;80.21
6833;BME280;3454;42.654;23.378;2023-05-13T03:39:41;63940.59;;;9.54;82.14
6833;BME280;3454;42.654;23.378;2023-05-13T03:42:06;63943.66;;;9.54;81.82
6833;BME280;3454;42.654;23.378;2023-05-13T03:44:32;63949.91;;;9.62;81.22
6833;BME280;3454;42.654;23.378;2023-05-13T03:46:57;63960.84;;;9.72;80.57
6833;BME280;3454;42.654;23.378;2023-05-13T03:49:22;63955.38;;;9.67;79.87
6833;BME280;3454;42.654;23.378;2023-05-13T03:51:48;63947.50;;;9.58;79.52
6833;BME280;3454;42.654;23.378;2023-05-13T03:54:13;63934.03;;;9.48;79.55
6833;BME280;3454;42.654;23.378;2023-05-13T03:56:39;63933.84;;;9.45;79.69
6833;BME280;3454;42.654;23.378;2023-05-13T03:59:04;63930.00;;;9.42;80.78
6833;BME280;3454;42.654;23.378;2023-05-13T04:01:29;63940.41;;;9.51;80.53
6833;BME280;3454;42.654;23.378;2023-05-13T04:03:55;63953.38;;;9.68;81.81
6833;BME280;3454;42.654;23.378;2023-05-13T04:06:20;63962.25;;;9.71;81.62
6833;BME280;3454;42.654;23.378;2023-05-13T04:08:45;63963.00;;;9.74;83.10
6833;BME280;3454;42.654;23.378;2023-05-13T04:11:11;63976.16;;;9.86;82.04
6833;BME280;3454;42.654;23.378;2023-05-13T04:13:36;63971.00;;;9.79;81.92
6833;BME280;3454;42.654;23.378;2023-05-13T04:16:02;63972.88;;;9.83;80.64
6833;BME280;3454;42.654;23.378;2023-05-13T04:18:32;63981.06;;;9.91;77.44
6833;BME280;3454;42.654;23.378;2023-05-13T04:20:57;63978.31;;;9.88;76.49
6833;BME280;3454;42.654;23.378;2023-05-13T04:23:23;63975.59;;;9.86;78.27
6833;BME280;3454;42.654;23.378;2023-05-13T04:25:51;63981.41;;;9.89;77.77
6833;BME280;3454;42.654;23.378;2023-05-13T04:28:17;63989.81;;;9.99;78.62
6833;BME280;3454;42.654;23.378;2023-05-13T04:30:43;63975.25;;;9.88;77.97
6833;BME280;3454;42.654;23.378;2023-05-13T04:33:08;63984.13;;;9.91;77.86
6833;BME280;3454;42.654;23.378;2023-05-13T04:35:34;63986.53;;;9.96;80.00
6833;BME280;3454;42.654;23.378;2023-05-13T04:37:59;63981.63;;;9.91;80.93
6833;BME280;3454;42.654;23.378;2023-05-13T04:40:25;64010.09;;;10.18;79.21
6833;BME280;3454;42.654;23.378;2023-05-13T04:42:50;64037.09;;;10.45;77.97
6833;BME280;3454;42.654;23.378;2023-05-13T04:45:19;64068.97;;;10.69;75.22
6833;BME280;3454;42.654;23.378;2023-05-13T04:47:44;64065.88;;;10.69;74.34
6833;BME280;3454;42.654;23.378;2023-05-13T04:50:10;64095.78;;;10.94;74.17
6833;BME280;3454;42.654;23.378;2023-05-13T04:52:35;64103.44;;;11.01;74.87
6833;BME280;3454;42.654;23.378;2023-05-13T04:55:01;64087.25;;;10.88;75.65
6833;BME280;3454;42.654;23.378;2023-05-13T04:57:27;64078.50;;;10.80;76.11
6833;BME280;3454;42.654;23.378;2023-05-13T04:59:52;64100.38;;;11.01;76.38
6833;BME280;3454;42.654;23.378;2023-05-13T05:02:17;64129.41;;;11.27;73.98
6833;BME280;3454;42.654;23.378;2023-05-13T05:04:43;64116.25;;;11.15;75.60
6833;BME280;3454;42.654;23.378;2023-05-13T05:07:09;64127.19;;;11.25;73.87
6833;BME280;3454;42.654;23.378;2023-05-13T05:09:34;64139.59;;;11.34;73.55
6833;BME280;3454;42.654;23.378;2023-05-13T05:11:59;64135.09;;;11.35;74.88
6833;BME280;3454;42.654;23.378;2023-05-13T05:14:25;64112.97;;;11.12;77.02
6833;BME280;3454;42.654;23.378;2023-05-13T05:16:50;64126.66;;;11.25;77.26
6833;BME280;3454;42.654;23.378;2023-05-13T05:19:16;64116.06;;;11.13;78.89
6833;BME280;3454;42.654;23.378;2023-05-13T05:21:41;64093.81;;;10.94;79.74
6833;BME280;3454;42.654;23.378;2023-05-13T05:24:07;64071.38;;;10.74;80.20
6833;BME280;3454;42.654;23.378;2023-05-13T05:26:32;64096.00;;;10.96;80.67
6833;BME280;3454;42.654;23.378;2023-05-13T05:28:58;64127.19;;;11.25;77.19
6833;BME280;3454;42.654;23.378;2023-05-13T05:31:23;64120.97;;;11.17;76.89
6833;BME280;3454;42.654;23.378;2023-05-13T05:33:51;64110.00;;;11.07;78.95
6833;BME280;3454;42.654;23.378;2023-05-13T05:36:16;64090.19;;;10.93;78.93
6833;BME280;3454;42.654;23.378;2023-05-13T05:38:42;64089.63;;;10.93;78.74
6833;BME280;3454;42.654;23.378;2023-05-13T05:41:08;64074.66;;;10.77;79.10
6833;BME280;3454;42.654;23.378;2023-05-13T05:43:33;64105.84;;;11.06;77.86
6833;BME280;3454;42.654;23.378;2023-05-13T05:45:59;64103.44;;;11.01;78.64
6833;BME280;3454;42.654;23.378;2023-05-13T05:48:25;64150.22;;;11.46;75.96
6833;BME280;3454;42.654;23.378;2023-05-13T05:50:50;64138.50;;;11.33;76.89
6833;BME280;3454;42.654;23.378;2023-05-13T05:53:16;64133.03;;;11.28;77.88
6833;BME280;3454;42.654;23.378;2023-05-13T05:55:41;64149.44;;;11.43;75.30
6833;BME280;3454;42.654;23.378;2023-05-13T05:58:08;64153.81;;;11.47;76.38
6833;BME280;3454;42.654;23.378;2023-05-13T06:00:38;64177.41;;;11.69;76.25
6833;BME280;3454;42.654;23.378;2023-05-13T06:03:04;64168.84;;;11.63;76.98
6833;BME280;3454;42.654;23.378;2023-05-13T06:05:29;64195.16;;;11.88;75.72
6833;BME280;3454;42.654;23.378;2023-05-13T06:07:55;64192.97;;;11.86;75.69
6833;BME280;3454;42.654;23.378;2023-05-13T06:10:20;64201.94;;;11.96;75.47
6833;BME280;3454;42.654;23.378;2023-05-13T06:12:45;64200.31;;;11.95;74.95
6833;BME280;3454;42.654;23.378;2023-05-13T06:15:11;64205.03;;;11.97;74.79
6833;BME280;3454;42.654;23.378;2023-05-13T06:17:37;64208.66;;;11.98;74.47
6833;BME280;3454;42.654;23.378;2023-05-13T06:20:02;64229.38;;;12.21;74.18
6833;BME280;3454;42.654;23.378;2023-05-13T06:22:28;64214.56;;;12.08;74.55
6833;BME280;3454;42.654;23.378;2023-05-13T06:24:54;64257.09;;;12.44;73.57
6833;BME280;3454;42.654;23.378;2023-05-13T06:27:20;64242.63;;;12.29;74.91
6833;BME280;3454;42.654;23.378;2023-05-13T06:29:49;64238.69;;;12.30;72.77
6833;BME280;3454;42.654;23.378;2023-05-13T06:32:17;64236.81;;;12.26;70.82
6833;BME280;3454;42.654;23.378;2023-05-13T06:34:43;64270.59;;;12.54;71.37
6833;BME280;3454;42.654;23.378;2023-05-13T06:37:12;64283.75;;;12.66;70.65
6833;BME280;3454;42.654;23.378;2023-05-13T06:39:40;64277.38;;;12.63;71.31
6833;BME280;3454;42.654;23.378;2023-05-13T06:42:05;64303.38;;;12.89;70.04
6833;BME280;3454;42.654;23.378;2023-05-13T06:44:31;64350.94;;;13.30;68.43
6833;BME280;3454;42.654;23.378;2023-05-13T06:46:56;64327.69;;;13.07;67.43
6833;BME280;3454;42.654;23.378;2023-05-13T06:49:22;64315.47;;;13.00;68.10
6833;BME280;3454;42.654;23.378;2023-05-13T06:51:49;64343.78;;;13.24;63.67
6833;BME280;3454;42.654;23.378;2023-05-13T06:54:15;64366.28;;;13.44;63.58
6833;BME280;3454;42.654;23.378;2023-05-13T06:56:40;64372.34;;;13.50;63.09
6833;BME280;3454;42.654;23.378;2023-05-13T06:59:06;64391.75;;;13.70;63.24
6833;BME280;3454;42.654;23.378;2023-05-13T07:01:31;64417.56;;;13.94;62.30
6833;BME280;3454;42.654;23.378;2023-05-13T07:03:57;64428.53;;;14.04;61.53
6833;BME280;3454;42.654;23.378;2023-05-13T07:06:22;64358.28;;;13.39;61.46
6833;BME280;3454;42.654;23.378;2023-05-13T07:08:48;64370.34;;;13.51;61.13
6833;BME280;3454;42.654;23.378;2023-05-13T07:11:13;64385.50;;;13.62;61.57
6833;BME280;3454;42.654;23.378;2023-05-13T07:13:39;64404.72;;;13.80;60.04
6833;BME280;3454;42.654;23.378;2023-05-13T07:16:04;64428.34;;;14.01;59.13
6833;BME280;3454;42.654;23.378;2023-05-13T07:18:30;64425.81;;;14.01;58.32
6833;BME280;3454;42.654;23.378;2023-05-13T07:20:55;64396.25;;;13.70;61.62
6833;BME280;3454;42.654;23.378;2023-05-13T07:23:22;64348.41;;;13.30;62.24
6833;BME280;3454;42.654;23.378;2023-05-13T07:25:47;64387.91;;;13.67;63.71
6833;BME280;3454;42.654;23.378;2023-05-13T07:28:14;64367.03;;;13.47;62.76
6833;BME280;3454;42.654;23.378;2023-05-13T07:30:40;64332.25;;;13.13;63.27
6833;BME280;3454;42.654;23.378;2023-05-13T07:33:05;64350.38;;;13.30;64.64
6833;BME280;3454;42.654;23.378;2023-05-13T07:35:31;64369.25;;;13.49;61.81
6833;BME280;3454;42.654;23.378;2023-05-13T07:37:56;64430.72;;;14.06;77.90
6833;BME280;3454;42.654;23.378;2023-05-13T07:40:22;64437.13;;;14.09;62.93
6833;BME280;3454;42.654;23.378;2023-05-13T07:42:47;64438.75;;;14.11;63.03
6833;BME280;3454;42.654;23.378;2023-05-13T07:45:13;64440.06;;;14.14;61.29
6833;BME280;3454;42.654;23.378;2023-05-13T07:47:38;64450.84;;;14.22;60.84
6833;BME280;3454;42.654;23.378;2023-05-13T07:50:04;64453.59;;;14.24;59.79
6833;BME280;3454;42.654;23.378;2023-05-13T07:52:31;64446.13;;;14.20;59.68
6833;BME280;3454;42.654;23.378;2023-05-13T07:54:56;64494.84;;;14.62;57.79
6833;BME280;3454;42.654;23.378;2023-05-13T07:57:23;64629.91;;;15.83;76.38
6833;BME280;3454;42.654;23.378;2023-05-13T07:59:48;64730.50;;;16.80;60.33
6833;BME280;3454;42.654;23.378;2023-05-13T08:02:14;64653.97;;;16.10;58.25
6833;BME280;3454;42.654;23.378;2023-05-13T08:04:39;64607.56;;;15.65;59.43
6833;BME280;3454;42.654;23.378;2023-05-13T08:07:05;64515.38;;;14.83;64.08
6833;BME280;3454;42.654;23.378;2023-05-13T08:09:30;64506.00;;;14.75;64.23
6833;BME280;3454;42.654;23.378;2023-05-13T08:11:56;64528.56;;;14.95;63.79
6833;BME280;3454;42.654;23.378;2023-05-13T08:14:22;64498.66;;;14.66;65.49
6833;BME280;3454;42.654;23.378;2023-05-13T08:16:47;64496.13;;;14.66;64.39
6833;BME280;3454;42.654;23.378;2023-05-13T08:19:13;64468.47;;;14.38;64.00
6833;BME280;3454;42.654;23.378;2023-05-13T08:21:39;64464.81;;;14.37;64.71
6833;BME280;3454;42.654;23.378;2023-05-13T08:24:05;64482.72;;;14.51;64.30
6833;BME280;3454;42.654;23.378;2023-05-13T08:26:31;64457.13;;;14.30;62.78
6833;BME280;3454;42.654;23.378;2023-05-13T08:28:58;64430.19;;;14.05;64.15
6833;BME280;3454;42.654;23.378;2023-05-13T08:31:23;64402.50;;;13.78;64.11
6833;BME280;3454;42.654;23.378;2023-05-13T08:33:50;64462.97;;;14.33;64.54
6833;BME280;3454;42.654;23.378;2023-05-13T08:36:16;64473.38;;;14.43;62.35
6833;BME280;3454;42.654;23.378;2023-05-13T08:38:41;64460.41;;;14.33;65.33
6833;BME280;3454;42.654;23.378;2023-05-13T08:41:13;64467.00;;;14.39;68.67
6833;BME280;3454;42.654;23.378;2023-05-13T08:43:39;64481.66;;;14.50;67.10
6833;BME280;3454;42.654;23.378;2023-05-13T08:46:08;64491.53;;;14.59;68.36
6833;BME280;3454;42.654;23.378;2023-05-13T08:48:33;64499.41;;;14.69;69.79
6833;BME280;3454;42.654;23.378;2023-05-13T08:51:00;64532.94;;;14.99;69.09
6833;BME280;3454;42.654;23.378;2023-05-13T08:53:27;64544.50;;;15.10;65.05
6833;BME280;3454;42.654;23.378;2023-05-13T08:55:53;64552.00;;;15.14;66.45
6833;BME280;3454;42.654;23.378;2023-05-13T08:58:19;64576.94;;;15.40;68.48
6833;BME280;3454;42.654;23.378;2023-05-13T09:00:45;64568.69;;;15.32;64.97
6833;BME280;3454;42.654;23.378;2023-05-13T09:03:13;64562.66;;;15.27;66.80
6833;BME280;3454;42.654;23.378;2023-05-13T09:05:39;64595.09;;;15.56;68.73
6833;BME280;3454;42.654;23.378;2023-05-13T09:08:08;64619.66;;;15.76;69.91
6833;BME280;3454;42.654;23.378;2023-05-13T09:10:34;64619.84;;;15.79;65.75
6833;BME280;3454;42.654;23.378;2023-05-13T09:13:00;64652.66;;;16.07;66.40
6833;BME280;3454;42.654;23.378;2023-05-13T09:15:27;64663.66;;;16.17;62.44
6833;BME280;3454;42.654;23.378;2023-05-13T09:17:54;64679.84;;;16.34;61.60
6833;BME280;3454;42.654;23.378;2023-05-13T09:20:21;64680.94;;;16.35;60.73
6833;BME280;3454;42.654;23.378;2023-05-13T09:22:49;64664.22;;;16.17;62.42
6833;BME280;3454;42.654;23.378;2023-05-13T09:25:15;64707.94;;;16.59;66.54
6833;BME280;3454;42.654;23.378;2023-05-13T09:27:44;64717.81;;;16.68;60.37
6833;BME280;3454;42.654;23.378;2023-05-13T09:30:10;64730.50;;;16.80;64.12
6833;BME280;3454;42.654;23.378;2023-05-13T09:32:37;64723.34;;;16.73;61.23
6833;BME280;3454;42.654;23.378;2023-05-13T09:35:13;64761.69;;;17.06;62.79
6833;BME280;3454;42.654;23.378;2023-05-13T09:37:46;64778.75;;;17.22;61.09
6833;BME280;3454;42.654;23.378;2023-05-13T09:40:15;64800.44;;;17.44;60.58
6833;BME280;3454;42.654;23.378;2023-05-13T09:42:43;64849.53;;;17.89;62.55
6833;BME280;3454;42.654;23.378;2023-05-13T09:45:10;64898.59;;;18.33;64.06
6833;BME280;3454;42.654;23.378;2023-05-13T09:47:36;64884.25;;;18.20;59.27
6833;BME280;3454;42.654;23.378;2023-05-13T09:50:02;64875.41;;;18.12;57.43
6833;BME280;3454;42.654;23.378;2023-05-13T09:52:33;64880.38;;;18.17;57.06
6833;BME280;3454;42.654;23.378;2023-05-13T09:54:59;64903.56;;;18.38;55.41
6833;BME280;3454;42.654;23.378;2023-05-13T09:57:28;64884.25;;;18.20;55.73
6833;BME280;3454;42.654;23.378;2023-05-13T10:00:01;64862.97;;;18.03;57.05
6833;BME280;3454;42.654;23.378;2023-05-13T10:02:28;64948.03;;;18.76;57.93
6833;BME280;3454;42.654;23.378;2023-05-13T10:04:54;64999.34;;;19.23;60.80
6833;BME280;3454;42.654;23.378;2023-05-13T10:07:21;65025.53;;;19.49;57.24
6833;BME280;3454;42.654;23.378;2023-05-13T10:10:08;65044.28;;;19.66;56.08
6833;BME280;3454;42.654;23.378;2023-05-13T10:12:35;65043.19;;;19.65;55.04
6833;BME280;3454;42.654;23.378;2023-05-13T10:15:03;65036.75;;;19.62;53.03
6833;BME280;3454;42.654;23.378;2023-05-13T10:17:30;65074.13;;;19.93;53.03
6833;BME280;3454;42.654;23.378;2023-05-13T10:19:57;65044.84;;;19.67;52.19
6833;BME280;3454;42.654;23.378;2023-05-13T10:22:27;65012.28;;;19.37;51.96
6833;BME280;3454;42.654;23.378;2023-05-13T10:24:57;64986.31;;;19.13;52.68
6833;BME280;3454;42.654;23.378;2023-05-13T10:27:26;65001.75;;;19.27;53.55
6833;BME280;3454;42.654;23.378;2023-05-13T10:29:53;65079.28;;;20.00;54.65
6833;BME280;3454;42.654;23.378;2023-05-13T10:32:23;65052.03;;;19.73;52.31
6833;BME280;3454;42.654;23.378;2023-05-13T10:35:14;65066.38;;;19.86;52.26
6833;BME280;3454;42.654;23.378;2023-05-13T10:38:02;65135.09;;;20.51;52.67
6833;BME280;3454;42.654;23.378;2023-05-13T10:40:36;65038.56;;;19.59;53.01
6833;BME280;3454;42.654;23.378;2023-05-13T10:43:20;65000.47;;;19.24;52.93
6833;BME280;3454;42.654;23.378;2023-05-13T10:45:50;64963.16;;;18.92;54.07
6833;BME280;3454;42.654;23.378;2023-05-13T10:48:17;64914.06;;;18.48;55.14
6833;BME280;3454;42.654;23.378;2023-05-13T10:50:54;64840.50;;;17.78;57.53
6833;BME280;3454;42.654;23.378;2023-05-13T10:53:22;64856.69;;;17.95;57.79
6833;BME280;3454;42.654;23.378;2023-05-13T10:55:52;64808.94;;;17.54;57.95
6833;BME280;3454;42.654;23.378;2023-05-13T10:58:17;64830.78;;;17.72;59.99
6833;BME280;3454;42.654;23.378;2023-05-13T11:00:46;64825.06;;;17.64;58.58
6833;BME280;3454;42.654;23.378;2023-05-13T11:06:13;64777.84;;;17.23;58.32
6833;BME280;3454;42.654;23.378;2023-05-13T11:08:48;64772.16;;;17.16;59.96
6833;BME280;3454;42.654;23.378;2023-05-13T11:13:50;64804.66;;;17.45;62.18
6833;BME280;3454;42.654;23.378;2023-05-13T11:16:16;64826.91;;;17.68;63.16
6833;BME280;3454;42.654;23.378;2023-05-13T11:18:42;64838.50;;;17.79;62.74
6833;BME280;3454;42.654;23.378;2023-05-13T11:21:08;64855.56;;;17.94;61.90
6833;BME280;3454;42.654;23.378;2023-05-13T11:23:49;64942.72;;;18.74;60.04
6833;BME280;3454;42.654;23.378;2023-05-13T11:26:15;65008.97;;;19.34;56.78
6833;BME280;3454;42.654;23.378;2023-05-13T11:29:02;65073.56;;;19.93;54.63
6833;BME280;3454;42.654;23.378;2023-05-13T11:31:46;65140.44;;;20.54;57.51
6833;BME280;3454;42.654;23.378;2023-05-13T11:36:43;65083.16;;;20.04;52.28
6833;BME280;3454;42.654;23.378;2023-05-13T11:39:11;65166.59;;;20.80;51.28
6833;BME280;3454;42.654;23.378;2023-05-13T11:41:43;65221.69;;;21.28;49.59
6833;BME280;3454;42.654;23.378;2023-05-13T11:44:11;65220.25;;;21.29;49.94
6833;BME280;3454;42.654;23.378;2023-05-13T11:46:36;65252.88;;;21.58;47.46
6833;BME280;3454;42.654;23.378;2023-05-13T11:49:02;65241.81;;;21.48;47.78
6833;BME280;3454;42.654;23.378;2023-05-13T11:51:28;65259.50;;;21.64;49.63
6833;BME280;3454;42.654;23.378;2023-05-13T11:54:00;65259.50;;;21.64;47.98
6833;BME280;3454;42.654;23.378;2023-05-13T11:56:26;65267.06;;;21.69;47.87
6833;BME280;3454;42.654;23.378;2023-05-13T11:59:11;65270.56;;;21.74;48.32
6833;BME280;3454;42.654;23.378;2023-05-13T12:01:38;65325.00;;;22.26;47.67
6833;BME280;3454;42.654;23.378;2023-05-13T12:04:04;65355.81;;;22.52;47.76
6833;BME280;3454;42.654;23.378;2023-05-13T12:06:29;65400.47;;;22.90;46.23
6833;BME280;3454;42.654;23.378;2023-05-13T12:08:55;65416.72;;;23.07;45.69
6833;BME280;3454;42.654;23.378;2023-05-13T12:11:29;65450.53;;;23.38;42.20
6833;BME280;3454;42.654;23.378;2023-05-13T12:13:54;65369.66;;;22.65;44.02
6833;BME280;3454;42.654;23.378;2023-05-13T12:16:20;65416.16;;;23.07;43.60
6833;BME280;3454;42.654;23.378;2023-05-13T12:19:03;65469.91;;;23.56;43.11
6833;BME280;3454;42.654;23.378;2023-05-13T12:21:32;65518.69;;;24.00;43.23
6833;BME280;3454;42.654;23.378;2023-05-13T12:23:59;65451.66;;;23.39;41.58
6833;BME280;3454;42.654;23.378;2023-05-13T12:26:25;65387.38;;;22.81;43.32
6833;BME280;3454;42.654;23.378;2023-05-13T12:28:59;65314.28;;;22.14;44.12
6833;BME280;3454;42.654;23.378;2023-05-13T12:31:25;65303.56;;;22.02;43.32
6833;BME280;3454;42.654;23.378;2023-05-13T12:33:51;65302.69;;;22.04;45.44
6833;BME280;3454;42.654;23.378;2023-05-13T12:36:27;65280.34;;;21.81;46.56
6833;BME280;3454;42.654;23.378;2023-05-13T12:39:01;65308.56;;;22.07;44.85
6833;BME280;3454;42.654;23.378;2023-05-13T12:41:34;65261.50;;;21.64;45.30
6833;BME280;3454;42.654;23.378;2023-05-13T12:44:02;65204.56;;;21.12;45.69
6833;BME280;3454;42.654;23.378;2023-05-13T12:46:28;65146.84;;;20.57;45.19
6833;BME280;3454;42.654;23.378;2023-05-13T12:48:58;65113.16;;;20.27;47.50
6833;BME280;3454;42.654;23.378;2023-05-13T12:51:25;65121.28;;;20.39;46.08
6833;BME280;3454;42.654;23.378;2023-05-13T12:53:52;65106.16;;;20.23;46.82
6833;BME280;3454;42.654;23.378;2023-05-13T12:56:19;65102.06;;;20.17;48.61
6833;BME280;3454;42.654;23.378;2023-05-13T12:58:46;65076.50;;;19.98;49.02
6833;BME280;3454;42.654;23.378;2023-05-13T13:01:12;65069.16;;;19.89;48.25
6833;BME280;3454;42.654;23.378;2023-05-13T13:03:38;65068.59;;;19.88;46.67
6833;BME280;3454;42.654;23.378;2023-05-13T13:06:03;65066.38;;;19.86;46.68
6833;BME280;3454;42.654;23.378;2023-05-13T13:08:29;65054.25;;;19.75;47.02
6833;BME280;3454;42.654;23.378;2023-05-13T13:10:55;65031.03;;;19.54;47.87
6833;BME280;3454;42.654;23.378;2023-05-13T13:13:21;65045.41;;;19.67;48.99
6833;BME280;3454;42.654;23.378;2023-05-13T13:15:46;65041.88;;;19.62;49.34
6833;BME280;3454;42.654;23.378;2023-05-13T13:18:11;65031.03;;;19.54;49.84
6833;BME280;3454;42.654;23.378;2023-05-13T13:20:37;65020.00;;;19.44;50.37
6833;BME280;3454;42.654;23.378;2023-05-13T13:23:02;65020.91;;;19.43;49.61
6833;BME280;3454;42.654;23.378;2023-05-13T13:25:28;65007.88;;;19.33;51.22